This is the latest recevied weather packets stored in our database for station/object WB3IGR. If no packets are shown the sender has not sent any weather packets the latest 10 day(s).
| Time | Temp. | Humidity | Pressure | Rain* | Wind** | Luminosity | Snow |
|---|---|---|---|---|---|---|---|
| 1778224640 | 6.11° C | 90% | 1013.9 hPa | 0 mm | - | 0 W/m² | - |
| 1778224338 | 6.67° C | 90% | 1014.4 hPa | 0 mm | - | 0 W/m² | - |
| 1778224035 | 6.11° C | 90% | 1014 hPa | 0 mm | - | 0 W/m² | - |
| 1778223734 | 6.11° C | 90% | 1014.1 hPa | 0 mm | - | 0 W/m² | - |
| 1778223431 | 6.11° C | 90% | 1014.3 hPa | 0 mm | - | 0 W/m² | - |
| 1778223129 | 6.67° C | 89% | 1014.3 hPa | 0 mm | - | 0 W/m² | - |
| 1778222826 | 6.67° C | 88% | 1014.1 hPa | 0 mm | - | 0 W/m² | - |
| 1778222524 | 6.67° C | 87% | 1014 hPa | 0 mm | - | 0 W/m² | - |
| 1778222222 | 7.22° C | 87% | 1014.4 hPa | 0 mm | - | 0 W/m² | - |
| 1778221919 | 7.22° C | 85% | 1014.1 hPa | 0 mm | - | 0 W/m² | - |
| 1778221616 | 7.22° C | 85% | 1014.1 hPa | 0 mm | - | 0 W/m² | - |
| 1778221313 | 7.78° C | 84% | 1014.1 hPa | 0 mm | - | 0 W/m² | - |
| 1778221010 | 7.78° C | 83% | 1014 hPa | 0 mm | - | 0 W/m² | - |
| 1778220708 | 7.78° C | 82% | 1013.9 hPa | 0 mm | - | 0 W/m² | - |
| 1778220404 | 7.78° C | 82% | 1013.9 hPa | 0 mm | - | 0 W/m² | - |
| 1778220101 | 8.33° C | 81% | 1014.1 hPa | 0 mm | - | 0 W/m² | - |
| 1778219797 | 8.33° C | 81% | 1014 hPa | 0 mm | - | 0 W/m² | - |
| 1778219494 | 8.33° C | 81% | 1013.9 hPa | 0 mm | - | 0 W/m² | - |
| 1778219190 | 8.33° C | 80% | 1013.9 hPa | 0 mm | - | 0 W/m² | - |
| 1778218888 | 8.89° C | 79% | 1013.8 hPa | 0 mm | - | 0 W/m² | - |
| 1778218585 | 8.89° C | 78% | 1013.6 hPa | 0 mm | - | 0 W/m² | - |
| 1778218283 | 9.44° C | 78% | 1013.5 hPa | 0 mm | - | 0 W/m² | - |
| 1778217980 | 9.44° C | 77% | 1013.5 hPa | 0 mm | - | 0 W/m² | - |
| 1778217677 | 9.44° C | 76% | 1013.4 hPa | 0 mm | - | 0 W/m² | - |
| 1778217373 | 10° C | 75% | 1013.5 hPa | 0 mm | - | 0 W/m² | - |
* Rain latest hour (hover to see other rain measurements)
** Current wind speed in m/s (hover to see current wind gust speed)